Time;durP1;ratioP1;P1;durP2;ratioP2;P2;SDS_P1;SDS_P2;PMS_P1;PMS_P2;Temp;Humidity;BMP_temperature;BMP_pressure;BME280_temperature;BME280_humidity;BME280_pressure;Samples;Min_cycle;Max_cycle;Signal;HPM_P1;HPM_P2
2020/12/16 00:01:10;;;;;;;0.40;0.40;;;8.10;99.90;;;;;;5053341;28;20207;-89
2020/12/16 00:03:37;;;;;;;0.50;0.50;;;8.00;99.90;;;;;;5053473;28;20646;-89
2020/12/16 00:06:06;;;;;;;0.43;0.43;;;8.10;99.90;;;;;;5053286;28;20201;-88
2020/12/16 00:08:33;;;;;;;0.50;0.50;;;8.00;99.90;;;;;;5053016;28;20196;-88
2020/12/16 00:10:59;;;;;;;0.45;0.45;;;8.00;99.90;;;;;;5053165;28;20192;-87
2020/12/16 00:13:26;;;;;;;0.40;0.40;;;8.00;99.90;;;;;;5053094;28;20200;-88
2020/12/16 00:15:53;;;;;;;0.50;0.50;;;7.90;99.90;;;;;;5053196;28;20200;-88
2020/12/16 00:18:22;;;;;;;0.50;0.50;;;7.80;99.90;;;;;;5052987;28;20303;-88
2020/12/16 00:20:49;;;;;;;0.50;0.50;;;7.70;99.90;;;;;;5053407;28;20283;-88
2020/12/16 00:23:16;;;;;;;0.50;0.50;;;7.70;99.90;;;;;;5052596;28;20235;-88
2020/12/16 00:25:43;;;;;;;0.50;0.50;;;7.60;99.90;;;;;;5052568;28;20565;-87
2020/12/16 00:28:09;;;;;;;0.50;0.50;;;7.40;99.90;;;;;;5053035;28;20192;-88
2020/12/16 00:30:40;;;;;;;0.50;0.50;;;7.30;99.90;;;;;;5052477;28;20215;-88
2020/12/16 00:33:06;;;;;;;0.50;0.50;;;7.30;99.90;;;;;;5052585;28;20262;-89
2020/12/16 00:35:33;;;;;;;0.50;0.50;;;7.10;99.90;;;;;;5052480;28;20262;-88
2020/12/16 00:38:03;;;;;;;0.50;0.50;;;7.00;99.90;;;;;;5053412;28;20208;-88
2020/12/16 00:40:31;;;;;;;0.50;0.50;;;6.90;99.90;;;;;;5053777;28;20204;-87
2020/12/16 00:42:57;;;;;;;0.50;0.50;;;6.80;99.90;;;;;;5053273;28;20192;-88
2020/12/16 00:45:24;;;;;;;0.50;0.50;;;6.70;99.90;;;;;;5052618;28;20571;-88
2020/12/16 00:47:50;;;;;;;0.50;0.50;;;6.50;99.90;;;;;;5052442;28;20679;-88
2020/12/16 00:50:16;;;;;;;0.50;0.50;;;6.20;99.90;;;;;;5052263;28;20224;-88
2020/12/16 00:52:42;;;;;;;0.47;0.47;;;6.20;99.90;;;;;;5052252;28;20338;-88
2020/12/16 00:55:09;;;;;;;0.50;0.50;;;6.20;99.90;;;;;;5052416;28;20679;-88
2020/12/16 00:57:36;;;;;;;0.50;0.50;;;6.40;99.90;;;;;;5052186;28;20201;-86
2020/12/16 01:00:05;;;;;;;0.50;0.50;;;6.50;99.90;;;;;;5052269;28;20600;-86
2020/12/16 01:02:31;;;;;;;0.50;0.50;;;6.60;99.90;;;;;;5052489;28;20212;-86
2020/12/16 01:05:00;;;;;;;0.50;0.50;;;6.60;99.90;;;;;;5052452;28;20212;-86
2020/12/16 01:07:29;;;;;;;0.50;0.50;;;6.60;99.90;;;;;;5052238;28;20208;-86
2020/12/16 01:09:56;;;;;;;0.50;0.50;;;6.70;99.90;;;;;;5052184;28;20204;-85
2020/12/16 01:12:23;;;;;;;0.50;0.50;;;6.70;99.90;;;;;;5052026;28;20227;-86
2020/12/16 01:14:49;;;;;;;0.50;0.50;;;6.70;99.90;;;;;;5051804;28;20209;-86
2020/12/16 01:17:15;;;;;;;0.50;0.50;;;6.60;99.90;;;;;;5051835;28;20212;-88
2020/12/16 01:19:41;;;;;;;0.50;0.50;;;6.70;99.90;;;;;;5051626;28;20224;-87
2020/12/16 01:22:08;;;;;;;0.50;0.50;;;6.80;99.90;;;;;;5051739;28;20205;-86
2020/12/16 01:24:34;;;;;;;0.50;0.50;;;6.80;99.90;;;;;;5051416;28;20208;-87
2020/12/16 01:27:03;;;;;;;0.50;0.50;;;6.80;99.90;;;;;;5051940;28;20250;-86
2020/12/16 01:29:33;;;;;;;0.50;0.50;;;6.80;99.90;;;;;;5051587;28;20759;-86
2020/12/16 01:32:01;;;;;;;0.50;0.50;;;6.80;99.90;;;;;;5051996;28;20209;-87
2020/12/16 01:34:30;;;;;;;0.50;0.50;;;6.80;99.90;;;;;;5051962;28;20581;-87
2020/12/16 01:36:56;;;;;;;0.40;0.40;;;6.70;99.90;;;;;;5051224;28;20641;-87
2020/12/16 01:39:22;;;;;;;0.50;0.50;;;6.50;99.90;;;;;;5051406;28;20228;-86
2020/12/16 01:41:50;;;;;;;0.50;0.50;;;6.40;99.90;;;;;;5051289;28;20196;-86
2020/12/16 01:44:18;;;;;;;0.50;0.50;;;6.40;99.90;;;;;;5051249;28;20250;-88
2020/12/16 01:46:52;;;;;;;0.50;0.50;;;6.40;99.90;;;;;;5051168;28;20215;-86
2020/12/16 01:49:23;;;;;;;0.50;0.50;;;6.40;99.90;;;;;;5051045;28;20232;-86
2020/12/16 01:51:53;;;;;;;0.50;0.50;;;6.20;99.90;;;;;;5051053;28;20579;-87
2020/12/16 01:54:21;;;;;;;0.50;0.50;;;6.30;99.90;;;;;;5050981;28;20212;-87
2020/12/16 01:56:50;;;;;;;0.50;0.50;;;6.40;99.90;;;;;;5051031;28;20679;-87
2020/12/16 01:59:17;;;;;;;0.50;0.50;;;6.50;99.90;;;;;;5050736;28;20274;-85
2020/12/16 02:01:48;;;;;;;0.50;0.50;;;7.10;99.90;;;;;;5050852;28;20200;-87
2020/12/16 02:04:19;;;;;;;0.50;0.50;;;6.60;99.90;;;;;;5051097;28;20231;-87
2020/12/16 02:06:48;;;;;;;0.50;0.50;;;6.60;99.90;;;;;;5051201;28;20611;-88
2020/12/16 02:09:14;;;;;;;0.50;0.50;;;6.60;99.90;;;;;;5050223;28;20663;-86
2020/12/16 02:11:41;;;;;;;0.50;0.50;;;6.50;99.90;;;;;;5050600;28;20215;-87
2020/12/16 02:14:08;;;;;;;0.50;0.50;;;6.40;99.90;;;;;;5050737;28;20208;-87
2020/12/16 02:16:35;;;;;;;0.50;0.50;;;6.40;99.90;;;;;;5050529;28;20219;-86
2020/12/16 02:19:02;;;;;;;0.50;0.50;;;6.40;99.90;;;;;;5050534;28;20243;-86
2020/12/16 02:21:29;;;;;;;0.40;0.40;;;6.40;99.90;;;;;;5050966;28;20215;-86
2020/12/16 02:24:03;;;;;;;0.50;0.50;;;6.30;99.90;;;;;;5050739;28;20211;-86
2020/12/16 02:26:32;;;;;;;0.40;0.40;;;6.20;99.90;;;;;;5050619;28;20214;-87
2020/12/16 02:28:58;;;;;;;0.50;0.50;;;6.20;99.90;;;;;;5050779;28;20200;-87
2020/12/16 02:31:26;;;;;;;0.50;0.50;;;6.20;99.90;;;;;;5050493;28;20291;-87
2020/12/16 02:33:52;;;;;;;0.50;0.50;;;6.30;99.90;;;;;;5050565;28;20197;-87
2020/12/16 02:36:18;;;;;;;0.50;0.50;;;6.30;99.90;;;;;;5050432;28;20220;-86
2020/12/16 02:38:45;;;;;;;0.50;0.50;;;6.60;99.90;;;;;;5050095;28;20252;-86
2020/12/16 02:41:14;;;;;;;0.50;0.50;;;6.30;99.90;;;;;;5050472;28;20208;-87
2020/12/16 02:43:41;;;;;;;0.47;0.47;;;6.30;99.90;;;;;;5050641;28;20208;-87
2020/12/16 02:46:10;;;;;;;0.50;0.50;;;6.30;99.90;;;;;;5050324;28;20201;-87
2020/12/16 02:48:36;;;;;;;0.50;0.50;;;6.30;99.90;;;;;;5050075;28;20231;-86
2020/12/16 02:51:03;;;;;;;0.50;0.50;;;6.30;99.90;;;;;;5050296;28;20529;-88
2020/12/16 02:53:29;;;;;;;0.50;0.50;;;6.40;99.90;;;;;;5050129;28;20204;-88
2020/12/16 02:55:58;;;;;;;0.50;0.50;;;6.30;99.90;;;;;;5050158;28;20238;-87
2020/12/16 02:58:27;;;;;;;0.50;0.50;;;6.30;99.90;;;;;;5050425;28;20227;-86
2020/12/16 03:00:54;;;;;;;0.50;0.50;;;6.20;99.90;;;;;;5050253;28;20216;-86
2020/12/16 03:03:20;;;;;;;0.50;0.50;;;6.20;99.90;;;;;;5050097;28;20212;-87
2020/12/16 03:05:46;;;;;;;0.50;0.50;;;6.20;99.90;;;;;;5050853;28;20212;-87
2020/12/16 03:08:15;;;;;;;0.50;0.50;;;6.10;99.90;;;;;;5050662;28;20211;-87
2020/12/16 03:10:41;;;;;;;0.50;0.50;;;6.00;99.90;;;;;;5050300;28;20204;-87
2020/12/16 03:13:08;;;;;;;0.50;0.50;;;6.00;99.90;;;;;;5050476;28;20204;-86
2020/12/16 03:15:37;;;;;;;0.50;0.50;;;6.00;99.90;;;;;;5050176;28;20196;-87
2020/12/16 03:18:04;;;;;;;0.50;0.50;;;6.00;99.90;;;;;;5049617;28;20562;-86
2020/12/16 03:20:30;;;;;;;0.50;0.50;;;6.00;99.90;;;;;;5050124;28;20232;-86
2020/12/16 03:22:57;;;;;;;0.50;0.50;;;6.00;99.90;;;;;;5050265;28;20208;-87
2020/12/16 03:25:25;;;;;;;0.50;0.50;;;5.90;99.90;;;;;;5049937;28;20208;-88
2020/12/16 03:27:51;;;;;;;0.50;0.50;;;5.90;99.90;;;;;;5045585;28;20263;-88
2020/12/16 03:30:18;;;;;;;0.50;0.50;;;5.90;99.90;;;;;;5032635;28;20200;-88
2020/12/16 03:32:44;;;;;;;0.50;0.50;;;6.00;99.90;;;;;;5031504;28;20193;-87
2020/12/16 03:35:12;;;;;;;0.50;0.50;;;5.90;99.90;;;;;;5030217;28;20255;-87
2020/12/16 03:37:38;;;;;;;0.50;0.50;;;6.00;99.90;;;;;;5029953;28;20212;-88
2020/12/16 03:40:08;;;;;;;0.50;0.50;;;6.00;99.90;;;;;;5030057;28;20233;-87
2020/12/16 03:42:35;;;;;;;0.50;0.50;;;6.00;99.90;;;;;;5030073;28;20731;-87
2020/12/16 03:45:02;;;;;;;0.50;0.50;;;6.00;99.90;;;;;;5034431;28;20308;-88
2020/12/16 03:47:28;;;;;;;0.50;0.50;;;5.90;99.90;;;;;;5038882;28;20205;-87
2020/12/16 03:49:54;;;;;;;0.50;0.50;;;5.90;99.90;;;;;;5039628;28;20221;-87
2020/12/16 03:52:21;;;;;;;0.50;0.50;;;6.00;99.90;;;;;;5039529;28;20246;-87
2020/12/16 03:54:50;;;;;;;0.50;0.50;;;5.90;99.90;;;;;;5039635;28;20213;-87
2020/12/16 03:57:16;;;;;;;0.50;0.50;;;5.90;99.90;;;;;;5034550;28;20200;-87
2020/12/16 03:59:42;;;;;;;0.50;0.50;;;5.90;99.90;;;;;;5041284;28;20295;-87
2020/12/16 04:02:08;;;;;;;0.50;0.50;;;5.80;99.90;;;;;;5038707;28;20211;-86
2020/12/16 04:04:34;;;;;;;0.50;0.50;;;5.80;99.90;;;;;;5041436;28;20208;-87
2020/12/16 04:07:00;;;;;;;0.50;0.50;;;5.80;99.90;;;;;;5047477;28;20481;-88
2020/12/16 04:09:27;;;;;;;0.50;0.50;;;5.70;99.90;;;;;;5052813;28;20197;-87
2020/12/16 04:11:54;;;;;;;0.50;0.50;;;5.70;99.90;;;;;;5053081;28;20254;-87
2020/12/16 04:14:20;;;;;;;0.50;0.50;;;5.60;99.90;;;;;;5053341;28;20266;-87
2020/12/16 04:16:46;;;;;;;0.50;0.50;;;5.60;99.90;;;;;;5054031;28;20212;-87
2020/12/16 04:19:15;;;;;;;0.50;0.50;;;5.70;99.90;;;;;;5052582;28;20216;-87
2020/12/16 04:21:43;;;;;;;0.50;0.50;;;5.70;99.90;;;;;;5041991;28;20211;-88
2020/12/16 04:24:10;;;;;;;0.50;0.50;;;5.60;99.90;;;;;;5041765;28;20196;-86
2020/12/16 04:26:38;;;;;;;0.50;0.50;;;5.60;99.90;;;;;;5041941;28;20212;-88
2020/12/16 04:29:04;;;;;;;0.50;0.50;;;5.60;99.90;;;;;;5041437;28;20196;-87
2020/12/16 04:31:30;;;;;;;0.50;0.50;;;5.70;99.90;;;;;;5041134;28;20201;-87
2020/12/16 04:33:59;;;;;;;0.40;0.40;;;5.60;99.90;;;;;;5042203;28;20273;-88
2020/12/16 04:36:25;;;;;;;0.50;0.50;;;5.60;99.90;;;;;;5043345;28;20208;-87
2020/12/16 04:38:52;;;;;;;0.50;0.50;;;5.50;99.90;;;;;;5040874;28;20213;-87
2020/12/16 04:41:18;;;;;;;0.50;0.50;;;5.40;99.90;;;;;;5042124;28;20199;-87
2020/12/16 04:43:46;;;;;;;0.50;0.50;;;5.40;99.90;;;;;;5043193;28;20235;-87
2020/12/16 04:46:14;;;;;;;0.50;0.50;;;5.40;99.90;;;;;;5041314;28;20243;-87
2020/12/16 04:48:45;;;;;;;0.50;0.50;;;5.50;99.90;;;;;;5041126;28;20240;-87
2020/12/16 04:51:13;;;;;;;0.50;0.50;;;5.50;99.90;;;;;;5040847;28;20201;-87
2020/12/16 04:53:40;;;;;;;0.50;0.50;;;5.50;99.90;;;;;;5042007;28;20232;-86
2020/12/16 04:56:08;;;;;;;0.50;0.50;;;5.60;99.90;;;;;;5038922;28;20870;-87
2020/12/16 04:58:39;;;;;;;0.50;0.50;;;5.60;99.90;;;;;;5041687;28;20664;-87
2020/12/16 05:01:07;;;;;;;0.50;0.50;;;5.60;99.90;;;;;;5041753;28;20204;-88
2020/12/16 05:03:33;;;;;;;0.50;0.50;;;5.70;99.90;;;;;;5043560;28;20210;-87
2020/12/16 05:05:59;;;;;;;0.50;0.50;;;5.70;99.90;;;;;;5043658;28;20201;-87
2020/12/16 05:08:27;;;;;;;0.50;0.50;;;5.70;99.90;;;;;;5042322;28;20213;-87
2020/12/16 05:10:53;;;;;;;0.50;0.50;;;5.70;99.90;;;;;;5039422;28;20216;-87
2020/12/16 05:13:21;;;;;;;0.50;0.50;;;5.70;99.90;;;;;;5043193;28;20216;-87
2020/12/16 05:15:48;;;;;;;0.50;0.50;;;5.80;99.90;;;;;;5041922;28;20205;-87
2020/12/16 05:18:18;;;;;;;0.50;0.50;;;5.90;99.90;;;;;;5043575;28;20208;-87
2020/12/16 05:20:49;;;;;;;0.50;0.50;;;5.90;99.90;;;;;;5043942;28;20283;-87
2020/12/16 05:23:16;;;;;;;0.50;0.50;;;5.90;99.90;;;;;;5041724;28;20204;-90
2020/12/16 05:25:57;;;;;;;0.50;0.50;;;5.90;99.90;;;;;;5033663;28;20205;-88
2020/12/16 05:28:29;;;;;;;0.50;0.50;;;5.90;99.90;;;;;;5033623;28;20623;-87
2020/12/16 05:30:56;;;;;;;0.50;0.50;;;6.00;99.90;;;;;;5011463;28;20330;-88
2020/12/16 05:33:24;;;;;;;0.50;0.50;;;6.00;99.90;;;;;;5029060;28;20215;-87
2020/12/16 05:35:54;;;;;;;0.50;0.50;;;6.10;99.90;;;;;;5032184;28;20453;-88
2020/12/16 05:38:24;;;;;;;0.50;0.50;;;6.10;99.90;;;;;;5032823;28;20193;-88
2020/12/16 05:40:51;;;;;;;0.50;0.50;;;6.10;99.90;;;;;;5032594;28;20225;-88
2020/12/16 05:43:26;;;;;;;0.50;0.50;;;6.10;99.90;;;;;;5032281;28;20300;-89
2020/12/16 05:45:52;;;;;;;0.50;0.50;;;6.20;99.90;;;;;;5032487;28;20204;-86
2020/12/16 05:48:19;;;;;;;0.50;0.50;;;6.20;99.90;;;;;;5031585;28;20623;-87
2020/12/16 05:50:50;;;;;;;0.50;0.50;;;6.20;99.90;;;;;;5027632;28;20209;-87
2020/12/16 05:53:18;;;;;;;0.47;0.47;;;6.20;99.90;;;;;;5032236;28;20636;-88
2020/12/16 05:55:49;;;;;;;0.50;0.50;;;6.20;99.90;;;;;;5031860;28;20201;-87
2020/12/16 05:58:17;;;;;;;0.40;0.40;;;6.20;99.90;;;;;;5029296;28;20201;-87
2020/12/16 06:00:51;;;;;;;0.50;0.50;;;6.20;99.90;;;;;;5038675;28;20225;-87
2020/12/16 06:03:24;;;;;;;0.50;0.50;;;6.30;99.90;;;;;;5044483;28;20604;-87
2020/12/16 06:05:52;;;;;;;0.50;0.50;;;6.20;99.90;;;;;;5037133;28;20200;-87
2020/12/16 06:08:20;;;;;;;0.50;0.50;;;6.20;99.90;;;;;;5040095;28;20699;-87
2020/12/16 06:10:48;;;;;;;0.50;0.50;;;6.30;99.90;;;;;;5038618;28;20214;-87
2020/12/16 06:13:15;;;;;;;0.40;0.40;;;6.30;99.90;;;;;;5029036;28;22028;-87
2020/12/16 06:15:53;;;;;;;0.50;0.50;;;6.30;99.90;;;;;;5028159;28;20220;-87
2020/12/16 06:21:30;;;;;;;0.50;0.50;;;6.10;99.90;;;;;;5024407;28;20212;-87
2020/12/16 06:23:58;;;;;;;0.50;0.50;;;6.30;99.90;;;;;;5030812;28;20208;-87
2020/12/16 06:26:30;;;;;;;0.50;0.50;;;6.00;99.90;;;;;;5032111;28;20228;-87
2020/12/16 06:28:59;;;;;;;0.50;0.50;;;6.00;99.90;;;;;;5031746;28;20205;-88
2020/12/16 06:31:30;;;;;;;0.50;0.50;;;6.00;99.90;;;;;;5030846;28;20631;-88
2020/12/16 06:34:00;;;;;;;0.50;0.50;;;5.90;99.90;;;;;;5031518;28;20209;-89
2020/12/16 06:36:32;;;;;;;0.50;0.50;;;5.90;99.90;;;;;;5031440;28;20209;-88
2020/12/16 06:38:59;;;;;;;0.50;0.50;;;5.40;99.90;;;;;;5031229;28;20229;-88
2020/12/16 06:41:30;;;;;;;0.50;0.50;;;5.80;99.90;;;;;;5031798;28;20215;-88
2020/12/16 06:43:58;;;;;;;0.50;0.50;;;5.70;99.90;;;;;;5031454;28;20205;-87
2020/12/16 06:46:47;;;;;;;0.50;0.50;;;5.70;99.90;;;;;;5031636;28;21177;-88
2020/12/16 06:49:34;;;;;;;0.50;0.50;;;5.60;99.90;;;;;;5031083;28;20225;-88
2020/12/16 06:52:03;;;;;;;0.50;0.50;;;5.50;99.90;;;;;;5031300;28;20782;-88
2020/12/16 06:54:38;;;;;;;0.50;0.50;;;5.50;99.90;;;;;;5031466;28;20213;-88
2020/12/16 06:57:19;;;;;;;0.50;0.50;;;5.40;99.90;;;;;;5031004;28;20845;-88
2020/12/16 06:59:47;;;;;;;0.50;0.50;;;5.40;99.90;;;;;;5030901;28;20275;-88
2020/12/16 07:02:15;;;;;;;0.50;0.50;;;5.40;99.90;;;;;;5036574;28;20209;-88
2020/12/16 07:04:41;;;;;;;0.50;0.50;;;5.40;99.90;;;;;;5031271;28;20197;-88
2020/12/16 07:07:45;;;;;;;0.50;0.50;;;5.40;99.90;;;;;;5030809;28;20205;-87
2020/12/16 07:10:51;;;;;;;0.50;0.50;;;5.40;99.90;;;;;;5031374;28;20201;-88
2020/12/16 07:13:29;;;;;;;0.50;0.50;;;5.40;99.90;;;;;;5029248;28;20207;-87
2020/12/16 07:16:01;;;;;;;0.50;0.50;;;5.40;99.90;;;;;;5028847;28;20212;-86
2020/12/16 07:18:46;;;;;;;0.50;0.50;;;5.50;99.90;;;;;;5030736;28;20201;-87
2020/12/16 07:21:26;;;;;;;0.50;0.50;;;5.40;99.90;;;;;;5031390;28;20201;-87
2020/12/16 07:23:59;;;;;;;0.50;0.50;;;5.50;99.90;;;;;;5031292;28;20227;-87
2020/12/16 07:26:28;;;;;;;0.50;0.50;;;5.50;99.90;;;;;;5033606;28;20215;-86
2020/12/16 07:28:55;;;;;;;0.50;0.50;;;5.50;99.90;;;;;;5043204;28;20205;-88
2020/12/16 07:31:21;;;;;;;0.50;0.50;;;5.50;99.90;;;;;;5031434;28;20288;-86
2020/12/16 07:33:48;;;;;;;0.50;0.50;;;5.50;99.90;;;;;;5032182;28;20254;-85
2020/12/16 07:36:16;;;;;;;0.45;0.45;;;4.90;99.90;;;;;;5049144;28;20450;-85
2020/12/16 07:38:51;;;;;;;0.50;0.50;;;5.60;99.90;;;;;;5034672;28;20284;-85
2020/12/16 07:41:28;;;;;;;0.50;0.50;;;5.50;99.90;;;;;;5035153;28;20205;-86
2020/12/16 07:43:56;;;;;;;0.50;0.50;;;5.50;99.90;;;;;;5035069;28;20224;-86
2020/12/16 07:46:23;;;;;;;0.50;0.50;;;5.50;99.90;;;;;;5034823;28;20703;-86
2020/12/16 07:48:49;;;;;;;0.50;0.50;;;5.40;99.90;;;;;;5038929;28;20231;-86
2020/12/16 07:51:33;;;;;;;0.50;0.50;;;5.40;99.90;;;;;;5063259;28;20294;-88
2020/12/16 07:54:22;;;;;;;0.50;0.50;;;5.40;99.90;;;;;;5057706;28;20217;-88
2020/12/16 07:57:00;;;;;;;0.50;0.50;;;5.70;99.90;;;;;;5040251;28;20285;-88
2020/12/16 07:59:52;;;;;;;0.50;0.50;;;5.30;99.90;;;;;;5045232;28;20232;-87
2020/12/16 08:02:34;;;;;;;0.50;0.50;;;5.30;99.90;;;;;;5035562;28;20609;-90
2020/12/16 08:05:03;;;;;;;0.50;0.50;;;5.30;99.90;;;;;;5040092;28;21027;-87
2020/12/16 08:07:30;;;;;;;0.60;0.60;;;5.20;99.90;;;;;;5054348;28;20303;-87
2020/12/16 08:09:59;;;;;;;0.50;0.50;;;5.10;99.90;;;;;;5054437;28;20204;-88
2020/12/16 08:12:29;;;;;;;0.50;0.50;;;5.30;99.90;;;;;;5053336;28;20590;-88
2020/12/16 08:15:07;;;;;;;0.50;0.50;;;5.90;99.90;;;;;;5054197;28;20226;-88
2020/12/16 08:17:41;;;;;;;0.50;0.50;;;5.20;99.90;;;;;;5054458;28;20200;-88
2020/12/16 08:20:15;;;;;;;0.50;0.50;;;5.10;99.90;;;;;;5054442;28;20307;-88
2020/12/16 08:22:42;;;;;;;0.50;0.50;;;5.10;99.90;;;;;;5053714;28;20284;-88
2020/12/16 08:25:11;;;;;;;0.50;0.50;;;5.20;99.90;;;;;;5049272;28;20205;-87
2020/12/16 08:27:46;;;;;;;0.50;0.50;;;5.20;99.90;;;;;;5044495;28;20855;-87
2020/12/16 08:30:17;;;;;;;0.50;0.50;;;5.20;99.90;;;;;;5054148;28;20565;-87
2020/12/16 08:32:55;;;;;;;0.50;0.50;;;5.20;99.90;;;;;;5048676;28;20203;-87
2020/12/16 08:35:29;;;;;;;0.50;0.50;;;5.20;99.90;;;;;;5053623;28;20306;-87
2020/12/16 08:38:00;;;;;;;0.50;0.50;;;5.30;99.90;;;;;;5053540;28;20291;-87
2020/12/16 08:40:29;;;;;;;0.50;0.50;;;5.20;99.90;;;;;;5053558;28;20619;-88
2020/12/16 08:43:15;;;;;;;0.50;0.50;;;5.50;99.90;;;;;;5048334;28;20646;-88
2020/12/16 08:45:42;;;;;;;0.50;0.50;;;6.00;99.90;;;;;;5043214;28;20698;-87
2020/12/16 08:48:09;;;;;;;0.50;0.50;;;5.60;99.90;;;;;;5049631;28;20216;-87
2020/12/16 08:50:36;;;;;;;0.50;0.50;;;5.70;99.90;;;;;;5038879;28;20236;-89
2020/12/16 08:53:05;;;;;;;0.50;0.50;;;5.70;99.90;;;;;;5053650;28;20236;-87
2020/12/16 08:55:35;;;;;;;0.40;0.40;;;5.80;99.90;;;;;;5054114;28;20208;-87
2020/12/16 08:58:15;;;;;;;0.50;0.50;;;5.90;99.90;;;;;;5040702;28;20201;-88
2020/12/16 09:00:46;;;;;;;0.50;0.50;;;5.90;99.90;;;;;;5052621;28;20308;-87
2020/12/16 09:03:13;;;;;;;0.50;0.50;;;5.90;99.90;;;;;;5053891;28;20295;-87
2020/12/16 09:05:41;;;;;;;0.50;0.50;;;6.10;99.90;;;;;;5053681;28;20216;-88
2020/12/16 09:08:14;;;;;;;0.50;0.50;;;6.10;99.90;;;;;;5053659;28;20262;-87
2020/12/16 09:10:43;;;;;;;0.47;0.47;;;6.10;99.90;;;;;;5045630;28;20575;-87
2020/12/16 09:13:14;;;;;;;0.50;0.50;;;6.20;99.90;;;;;;5053632;28;20239;-86
2020/12/16 09:15:43;;;;;;;0.50;0.50;;;6.40;99.90;;;;;;5052907;28;20212;-87
2020/12/16 09:18:10;;;;;;;0.50;0.50;;;6.30;99.90;;;;;;5048501;28;20231;-87
2020/12/16 09:20:39;;;;;;;0.50;0.50;;;6.30;99.90;;;;;;5045152;28;20378;-87
2020/12/16 09:23:08;;;;;;;0.50;0.50;;;6.60;99.90;;;;;;5043390;28;20561;-87
2020/12/16 09:25:38;;;;;;;0.50;0.50;;;6.30;99.90;;;;;;5039904;28;20227;-86
2020/12/16 09:28:05;;;;;;;0.50;0.50;;;6.40;99.90;;;;;;5046891;28;20686;-88
2020/12/16 09:30:34;;;;;;;0.50;0.50;;;6.40;99.90;;;;;;5053676;28;20200;-87
2020/12/16 09:33:11;;;;;;;0.50;0.50;;;6.40;99.90;;;;;;5054294;28;20205;-87
2020/12/16 09:35:42;;;;;;;0.50;0.50;;;6.50;99.90;;;;;;5054119;28;20204;-87
2020/12/16 09:38:15;;;;;;;0.50;0.50;;;6.50;99.90;;;;;;5053670;28;20594;-86
2020/12/16 09:40:42;;;;;;;0.50;0.50;;;6.60;99.90;;;;;;5052874;28;20220;-87
2020/12/16 09:43:10;;;;;;;0.50;0.50;;;6.70;99.90;;;;;;5052444;28;20204;-87
2020/12/16 09:45:40;;;;;;;0.50;0.50;;;6.70;99.90;;;;;;5052463;28;20306;-88
2020/12/16 09:48:08;;;;;;;0.50;0.50;;;6.60;99.90;;;;;;5051933;28;20666;-88
2020/12/16 09:50:38;;;;;;;0.50;0.50;;;6.60;99.90;;;;;;5033179;28;20258;-88
2020/12/16 09:53:09;;;;;;;0.50;0.50;;;6.70;99.90;;;;;;5031877;28;20263;-88
2020/12/16 09:55:42;;;;;;;0.50;0.50;;;6.70;99.90;;;;;;5030942;28;20250;-87
2020/12/16 09:58:10;;;;;;;0.50;0.50;;;6.70;99.90;;;;;;5054359;28;20676;-87
2020/12/16 10:00:40;;;;;;;0.43;0.43;;;6.70;99.90;;;;;;5037656;28;20221;-87
2020/12/16 10:03:09;;;;;;;0.40;0.40;;;6.70;99.90;;;;;;5032326;28;20267;-86
2020/12/16 10:05:36;;;;;;;0.45;0.45;;;6.80;99.90;;;;;;5032741;28;20213;-86
2020/12/16 10:08:03;;;;;;;0.50;0.50;;;6.80;99.90;;;;;;5032152;28;20215;-87
2020/12/16 10:10:32;;;;;;;0.50;0.50;;;6.80;99.90;;;;;;5028779;28;20262;-86
2020/12/16 10:12:59;;;;;;;0.50;0.50;;;6.80;99.90;;;;;;5031224;28;20209;-87
2020/12/16 10:15:26;;;;;;;0.50;0.50;;;6.70;99.90;;;;;;5028073;28;20201;-86
2020/12/16 10:17:54;;;;;;;0.40;0.40;;;6.70;99.90;;;;;;5035392;28;20251;-86
2020/12/16 10:20:20;;;;;;;0.50;0.50;;;6.70;99.90;;;;;;5042833;28;20224;-87
2020/12/16 10:22:48;;;;;;;0.50;0.50;;;6.80;99.90;;;;;;5036900;28;20213;-87
2020/12/16 10:25:14;;;;;;;0.50;0.50;;;6.80;99.90;;;;;;5031659;28;20216;-86
2020/12/16 10:27:40;;;;;;;0.47;0.47;;;6.80;99.90;;;;;;5031389;28;20220;-87
2020/12/16 10:30:07;;;;;;;0.50;0.50;;;6.80;99.90;;;;;;5031193;28;20196;-87
2020/12/16 10:32:38;;;;;;;0.50;0.50;;;6.80;99.90;;;;;;5030708;28;20201;-87
2020/12/16 10:35:07;;;;;;;0.50;0.50;;;6.80;99.90;;;;;;5030898;28;20343;-87
2020/12/16 10:37:35;;;;;;;0.50;0.50;;;6.90;99.90;;;;;;5030693;28;20205;-87
2020/12/16 10:40:03;;;;;;;0.50;0.50;;;6.90;99.90;;;;;;5030732;28;20224;-87
2020/12/16 10:42:34;;;;;;;0.50;0.50;;;7.00;99.90;;;;;;5030282;28;20217;-87
2020/12/16 10:45:00;;;;;;;0.50;0.50;;;6.90;99.90;;;;;;5031233;28;20205;-87
2020/12/16 10:47:26;;;;;;;0.50;0.50;;;7.60;99.90;;;;;;5031657;28;20258;-87
2020/12/16 10:49:53;;;;;;;0.50;0.50;;;7.00;99.90;;;;;;5031261;28;20235;-88
2020/12/16 10:52:20;;;;;;;0.50;0.50;;;7.00;99.90;;;;;;5030825;28;20205;-87
2020/12/16 10:54:46;;;;;;;0.50;0.50;;;7.00;99.90;;;;;;5031267;28;20204;-86
2020/12/16 10:57:13;;;;;;;0.50;0.50;;;7.00;99.90;;;;;;5029781;28;20197;-87
2020/12/16 10:59:41;;;;;;;0.50;0.50;;;7.20;99.90;;;;;;5030963;28;20282;-87
2020/12/16 11:02:08;;;;;;;0.50;0.50;;;7.00;99.90;;;;;;5030937;28;20232;-88
2020/12/16 11:04:35;;;;;;;0.50;0.50;;;6.90;99.90;;;;;;5030992;28;20727;-88
2020/12/16 11:07:01;;;;;;;0.50;0.50;;;6.80;99.90;;;;;;5030551;28;20212;-87
2020/12/16 11:09:28;;;;;;;0.50;0.50;;;6.80;99.90;;;;;;5033407;28;20463;-87
2020/12/16 11:11:55;;;;;;;0.50;0.50;;;6.80;99.90;;;;;;5042406;28;20230;-87
2020/12/16 11:14:22;;;;;;;0.50;0.50;;;6.70;99.90;;;;;;5043881;28;20215;-86
2020/12/16 11:16:49;;;;;;;0.50;0.50;;;6.40;99.90;;;;;;5041979;28;20204;-89
2020/12/16 11:19:17;;;;;;;0.50;0.50;;;6.70;99.90;;;;;;5044879;28;20205;-88
2020/12/16 11:21:45;;;;;;;0.50;0.50;;;6.70;99.90;;;;;;5039173;28;20715;-88
2020/12/16 11:24:16;;;;;;;0.47;0.47;;;6.70;99.90;;;;;;5038884;28;20216;-89
2020/12/16 11:26:48;;;;;;;0.45;0.45;;;6.70;99.90;;;;;;5035662;28;20266;-90
2020/12/16 11:29:18;;;;;;;0.50;0.50;;;6.80;99.90;;;;;;5035263;28;20232;-90
2020/12/16 11:31:47;;;;;;;0.50;0.50;;;6.80;99.90;;;;;;5031176;28;20243;-89
2020/12/16 11:34:18;;;;;;;0.50;0.50;;;6.80;99.90;;;;;;5033313;28;20351;-90
2020/12/16 11:36:47;;;;;;;0.50;0.50;;;6.80;99.90;;;;;;5034581;28;20227;-91
2020/12/16 11:39:21;;;;;;;0.50;0.50;;;7.40;99.90;;;;;;5035384;28;20205;-91
2020/12/16 11:41:49;;;;;;;0.50;0.50;;;6.90;99.90;;;;;;5035582;28;20200;-88
2020/12/16 11:44:17;;;;;;;0.45;0.45;;;6.80;99.90;;;;;;5035310;28;20617;-89
2020/12/16 11:46:46;;;;;;;0.40;0.40;;;6.90;99.90;;;;;;5048883;28;20824;-88
2020/12/16 11:49:13;;;;;;;0.50;0.50;;;6.90;99.90;;;;;;5035132;28;20294;-88
2020/12/16 11:51:42;;;;;;;0.50;0.50;;;6.90;99.90;;;;;;5047127;28;20236;-88
2020/12/16 11:54:10;;;;;;;0.50;0.50;;;7.00;99.90;;;;;;5033664;28;20579;-87
2020/12/16 11:56:37;;;;;;;0.40;0.40;;;7.00;99.90;;;;;;5034698;28;20216;-88
2020/12/16 11:59:05;;;;;;;0.50;0.50;;;7.00;99.90;;;;;;5034472;28;20276;-87
2020/12/16 12:01:31;;;;;;;0.50;0.50;;;7.00;99.90;;;;;;5034236;28;20248;-88
2020/12/16 12:03:57;;;;;;;0.50;0.50;;;7.10;99.90;;;;;;5034976;28;20829;-88
2020/12/16 12:06:27;;;;;;;0.50;0.50;;;7.10;99.90;;;;;;5034831;28;20209;-87
2020/12/16 12:08:54;;;;;;;0.50;0.50;;;7.10;99.90;;;;;;5034540;28;20633;-88
2020/12/16 12:11:20;;;;;;;0.50;0.50;;;7.10;99.90;;;;;;5034596;28;20201;-88
2020/12/16 12:13:48;;;;;;;0.50;0.50;;;7.20;99.90;;;;;;5035896;28;20204;-88
2020/12/16 12:16:16;;;;;;;0.40;0.40;;;7.20;99.90;;;;;;5041717;28;20205;-88
2020/12/16 12:18:43;;;;;;;0.50;0.50;;;7.30;99.90;;;;;;5038890;28;20205;-88
2020/12/16 12:21:11;;;;;;;0.50;0.50;;;7.30;99.90;;;;;;5040635;28;20233;-88
2020/12/16 12:23:37;;;;;;;0.50;0.50;;;7.30;99.90;;;;;;5041838;28;20234;-88
2020/12/16 12:26:05;;;;;;;0.45;0.45;;;7.50;99.90;;;;;;5044633;28;20200;-88
2020/12/16 12:28:32;;;;;;;0.47;0.47;;;7.30;99.90;;;;;;5043288;28;20233;-88
2020/12/16 12:30:58;;;;;;;0.50;0.50;;;7.30;99.90;;;;;;5042686;28;20196;-88
2020/12/16 12:33:25;;;;;;;0.50;0.50;;;7.30;99.90;;;;;;5042365;28;20201;-88
2020/12/16 12:35:51;;;;;;;0.50;0.50;;;7.30;99.90;;;;;;5033854;28;20201;-89
2020/12/16 12:38:17;;;;;;;0.40;0.40;;;7.40;99.90;;;;;;5034004;28;20616;-88
2020/12/16 12:40:44;;;;;;;0.50;0.50;;;7.40;99.90;;;;;;5034073;28;20233;-88
2020/12/16 12:43:11;;;;;;;0.50;0.50;;;7.40;99.90;;;;;;5033399;28;20213;-88
2020/12/16 12:45:38;;;;;;;0.50;0.50;;;7.40;99.90;;;;;;5044988;28;20283;-89
2020/12/16 12:48:04;;;;;;;0.50;0.50;;;7.40;99.90;;;;;;5041851;28;20587;-89
2020/12/16 12:50:30;;;;;;;0.50;0.50;;;7.50;99.90;;;;;;5044490;28;20231;-89
2020/12/16 12:52:57;;;;;;;0.50;0.50;;;7.50;99.90;;;;;;5035476;28;20288;-88
2020/12/16 12:55:23;;;;;;;0.47;0.47;;;7.50;99.90;;;;;;5033784;28;20205;-88
2020/12/16 12:57:49;;;;;;;0.40;0.40;;;7.60;99.90;;;;;;5033003;28;20243;-87
2020/12/16 13:00:17;;;;;;;0.50;0.50;;;7.60;99.90;;;;;;5033620;28;20229;-88
2020/12/16 13:02:43;;;;;;;0.50;0.50;;;7.60;99.90;;;;;;5033137;28;20217;-88
2020/12/16 13:05:10;;;;;;;0.50;0.50;;;7.60;99.90;;;;;;5033658;28;20213;-88
2020/12/16 13:07:40;;;;;;;0.50;0.50;;;7.70;99.90;;;;;;5055003;28;20203;-89
2020/12/16 13:10:07;;;;;;;0.40;0.40;;;8.20;99.90;;;;;;5056045;28;20754;-88